Hovedside
METAR-TAF:

METAR-TAF

Lufthavner :

Puerto Francisco de Orellana, Ecuador

breddegrad: 00-27-46S, lengdegrad: 076-59-12W, høyde over havet: 254 m

Gjeldene værobservasjon

Denne rapporten ble laget for 53 minutter siden, klokken 21:00 UTC
Vind 4 kt fra Vest
Temperatur 30°C
Luftfuktighet 75%
Trykk 1009 hPa
Sikt 10 km eller mer
Få skyer i en høyde av 2300 ft
Brutte skyer i en høyde av 10000 ft

METAR: SECO 122100Z 26004KT 9999 FEW023 BKN100 30/25 Q1009 RMK A2982

Tid: 16:53 (21:53 UTC)


TAF: fraværende

Værobservasjoner og værvarsel for over 4000 flyplasser (METAR- og TAF-rapporter).

Tilgjengelige stasjoner er representert av de røde og gule prikkene på kartet.

Hold musepekeren over prikken for å se navnet på stasjonen.

Klikk så for å se værobservasjoner og -varsler.

For å forandre kartet kan du klikke på den grønne knappen med svart kryss for å zoome inn, på den grønne knappen med strek for å zoome ut, eller på de grønne pilene for å se tilstøtende kart.


METAR-TAF: